Time;durP1;ratioP1;P1;durP2;ratioP2;P2;SDS_P1;SDS_P2;PMS_P1;PMS_P2;Temp;Humidity;BMP_temperature;BMP_pressure;BME280_temperature;BME280_humidity;BME280_pressure;Samples;Min_cycle;Max_cycle;Signal;HPM_P1;HPM_P2
2021/04/03 00:02:33;;;;;;;13.30;8.73;;;;;;;5.37;81.56;100116.41;20850764;28;20238;-61
2021/04/03 00:42:22;;;;;;;9.33;6.20;;;;;;;4.92;82.91;100100.00;20953211;27;20685;-67
2021/04/03 01:02:17;;;;;;;5.23;4.30;;;;;;;4.38;83.92;100105.88;21040915;27;20626;-64
2021/04/03 01:12:49;;;;;;;5.03;4.10;;;;;;;4.41;83.76;100113.69;21029829;28;20221;-65
2021/04/03 01:42:54;;;;;;;4.50;3.40;;;;;;;4.13;85.21;100113.97;20876068;27;20555;-63
2021/04/03 02:12:51;;;;;;;6.40;4.13;;;;;;;3.77;87.68;100106.63;21034918;27;20654;-65
2021/04/03 02:22:51;;;;;;;7.50;5.10;;;;;;;3.82;87.64;100125.78;21053962;28;20306;-64
2021/04/03 02:32:54;;;;;;;5.07;3.80;;;;;;;3.84;86.62;100102.84;21038903;28;21662;-66
2021/04/03 03:12:52;;;;;;;5.40;3.20;;;;;;;4.06;85.92;100145.06;21049804;27;20816;-64
2021/04/03 03:22:54;;;;;;;5.40;4.50;;;;;;;3.70;95.27;100147.38;21024250;28;20219;-64
2021/04/03 03:32:55;;;;;;;6.80;4.93;;;;;;;3.10;100.00;100150.56;21042829;28;20281;-67
2021/04/03 03:52:51;;;;;;;21.30;9.57;;;;;;;2.40;100.00;100156.53;20873484;28;20330;-58
2021/04/03 04:12:49;;;;;;;26.13;9.90;;;;;;;2.19;100.00;100183.53;20890332;27;20606;-56
2021/04/03 05:02:33;;;;;;;23.27;8.90;;;;;;;2.31;100.00;100188.41;21012119;27;20579;-56
2021/04/03 05:52:18;;;;;;;47.27;14.80;;;;;;;3.06;100.00;100213.06;21106552;27;849840;-57
2021/04/03 06:02:18;;;;;;;43.47;14.47;;;;;;;3.12;100.00;100217.28;21106103;28;20248;-60
2021/04/03 06:12:54;;;;;;;49.60;14.97;;;;;;;3.23;100.00;100215.97;21127834;28;20217;-60
2021/04/03 07:12:32;;;;;;;61.70;22.97;;;;;;;3.82;100.00;100263.03;20948679;27;20667;-59
2021/04/03 07:22:33;;;;;;;47.27;19.67;;;;;;;3.67;100.00;100278.56;20919931;27;20228;-59
2021/04/03 07:32:39;;;;;;;50.70;20.07;;;;;;;3.55;100.00;100291.28;20880510;28;20220;-63
2021/04/03 07:42:40;;;;;;;43.00;20.60;;;;;;;3.92;100.00;100317.19;20897166;28;20731;-67
2021/04/03 08:22:34;;;;;;;13.60;10.20;;;;;;;4.01;100.00;100362.63;20928988;27;20556;-58
2021/04/03 08:42:33;;;;;;;24.53;14.30;;;;;;;4.32;100.00;100368.53;20898429;27;20636;-64
2021/04/03 09:02:31;;;;;;;14.60;10.87;;;;;;;4.94;100.00;100391.66;20896481;27;20561;-64
2021/04/03 09:42:29;;;;;;;7.00;5.33;;;;;;;6.09;100.00;100410.56;20973033;27;20646;-66
2021/04/03 10:02:26;;;;;;;5.23;4.30;;;;;;;6.41;100.00;100417.06;20739723;28;20616;-63
2021/04/03 10:12:27;;;;;;;3.70;3.40;;;;;;;5.96;100.00;100419.97;20750172;28;20229;-63
2021/04/03 10:42:22;;;;;;;3.50;1.90;;;;;;;7.03;100.00;100399.13;21080686;27;21152;-61
2021/04/03 11:12:16;;;;;;;3.37;2.17;;;;;;;6.54;100.00;100412.06;20879439;27;20575;-64
2021/04/03 11:22:16;;;;;;;3.83;2.00;;;;;;;7.27;99.24;100413.84;20870540;28;20259;-61
2021/04/03 11:52:10;;;;;;;4.53;2.37;;;;;;;5.59;100.00;100478.03;20893644;27;21401;-63
2021/04/03 12:02:11;;;;;;;4.40;2.00;;;;;;;4.22;100.00;100481.59;20827077;28;20231;-60
2021/04/03 12:42:01;;;;;;;3.67;1.70;;;;;;;5.21;100.00;100451.34;20825857;27;20592;-62
2021/04/03 12:52:03;;;;;;;1.90;1.20;;;;;;;6.27;100.00;100442.50;20805850;28;20262;-62
2021/04/03 13:02:04;;;;;;;2.37;1.27;;;;;;;7.04;100.00;100445.97;20807386;28;20223;-63
2021/04/03 13:22:02;;;;;;;3.23;1.70;;;;;;;6.28;98.49;100457.47;21063045;27;20549;-64
2021/04/03 13:32:06;;;;;;;0.80;0.63;;;;;;;7.11;100.00;100444.75;21022707;28;20223;-61
2021/04/03 14:02:02;;;;;;;1.63;0.90;;;;;;;7.22;67.65;100475.16;21061202;27;20544;-61
2021/04/03 14:12:03;;;;;;;2.10;1.50;;;;;;;6.67;70.09;100535.19;20989274;28;21022;-70
2021/04/03 14:22:04;;;;;;;1.97;1.77;;;;;;;6.30;81.92;100520.03;21004514;28;20235;-66
2021/04/03 14:52:05;;;;;;;2.63;1.80;;;;;;;6.53;91.43;100519.03;20880547;28;20360;-61
2021/04/03 15:32:01;;;;;;;2.23;1.47;;;;;;;7.18;96.93;100507.22;21007666;27;20582;-72
2021/04/03 15:42:02;;;;;;;1.17;1.07;;;;;;;7.24;85.43;100523.69;20941876;28;20903;-62
2021/04/03 15:52:03;;;;;;;6.70;3.30;;;;;;;7.03;87.87;100521.19;20950229;28;20219;-61
2021/04/03 16:42:00;;;;;;;8.77;5.10;;;;;;;5.10;87.51;100548.78;21115236;27;20570;-61
2021/04/03 17:02:00;;;;;;;1.53;1.37;;;;;;;4.37;91.67;100562.06;20798718;28;20573;-60
2021/04/03 17:12:01;;;;;;;1.20;1.03;;;;;;;4.09;94.77;100571.84;20782973;28;20222;-63
2021/04/03 17:31:59;;;;;;;3.73;2.87;;;;;;;3.47;98.65;100599.34;21037787;27;20927;-60
2021/04/03 17:42:00;;;;;;;6.07;3.70;;;;;;;3.30;99.12;100611.31;20992854;28;20225;-60
2021/04/03 18:02:10;;;;;;;5.57;3.67;;;;;;;3.20;100.00;100632.69;21036036;27;20663;-65
2021/04/03 18:12:11;;;;;;;8.03;4.13;;;;;;;3.11;100.00;100655.81;21012401;27;20239;-68
2021/04/03 18:32:09;;;;;;;19.60;10.77;;;;;;;2.57;100.00;100671.34;20835614;28;20587;-66
2021/04/03 18:42:14;;;;;;;48.67;24.97;;;;;;;2.43;100.00;100675.19;20758361;28;20293;-71
2021/04/03 19:42:04;;;;;;;15.67;7.23;;;;;;;2.47;100.00;100737.44;20962689;28;20546;-65
2021/04/03 20:21:58;;;;;;;7.33;3.77;;;;;;;2.56;100.00;100769.72;21033252;27;20541;-65
2021/04/03 20:31:59;;;;;;;8.27;4.10;;;;;;;2.27;100.00;100768.66;21034956;28;20222;-66
2021/04/03 20:51:53;;;;;;;7.90;4.50;;;;;;;1.87;100.00;100794.13;20769728;27;871277;-65
2021/04/03 22:51:28;;;;;;;4.40;3.20;;;;;;;0.14;100.00;100867.16;21074520;27;20707;-60
2021/04/03 23:01:29;;;;;;;6.93;3.60;;;;;;;0.11;100.00;100877.72;21069276;27;20244;-59
2021/04/03 23:31:23;;;;;;;7.60;4.20;;;;;;;-0.12;100.00;100877.13;20806389;28;20331;-60
